Terminal Aerodrome Forecast
Issued by NWS Cleveland, OH

Home | Current Version | Previous Version | Text Only | Print | Product List | Glossary Off
Versions: 1 2 3 4 5 6 7 8 9 10 11 12 13 14 15 16 17 18 19

436
FTUS41 KCLE 221130
TAFCAK
TAF
KCAK 221130Z 2212/2312 28009KT P6SM SCT020 BKN050
      TEMPO 2212/2214 BKN020
     FM221600 28011KT P6SM FEW050 SCT250
     FM230200 VRB03KT P6SM FEW250=

USA.gov is the U.S. government's official web portal to all federal, state and local government web resources and services.